createdAt,value
2018-02-18T00:00:39.065Z,102164.25
2018-02-18T00:05:33.522Z,102158.59
2018-02-18T00:10:28.711Z,102168.08
2018-02-18T00:15:24.118Z,102163.68
2018-02-18T00:20:18.617Z,102175.81
2018-02-18T00:25:12.972Z,102172.30
2018-02-18T00:30:07.800Z,102166.62
2018-02-18T00:35:03.166Z,102174.88
2018-02-18T00:39:57.661Z,102182.23
2018-02-18T00:44:51.979Z,102182.66
2018-02-18T00:49:46.549Z,102188.27
2018-02-18T00:54:41.990Z,102192.59
2018-02-18T00:59:36.413Z,102192.98
2018-02-18T01:04:30.711Z,102193.83
2018-02-18T01:09:25.073Z,102197.71
2018-02-18T01:14:20.238Z,102194.23
2018-02-18T01:19:14.537Z,102201.58
2018-02-18T01:24:08.825Z,102205.05
2018-02-18T01:29:03.134Z,102213.23
2018-02-18T01:33:57.497Z,102211.02
2018-02-18T01:38:52.505Z,102205.73
2018-02-18T01:43:47.054Z,102210.88
2018-02-18T01:48:41.408Z,102212.98
2018-02-18T01:53:37.222Z,102221.18
2018-02-18T01:58:31.509Z,102214.20
2018-02-18T02:03:25.798Z,102217.98
2018-02-18T02:08:20.118Z,102217.48
2018-02-18T02:13:14.393Z,102219.19
2018-02-18T02:18:08.668Z,102214.48
2018-02-18T02:23:03.855Z,102214.08
2018-02-18T02:27:58.133Z,102211.48
2018-02-18T02:32:52.404Z,102218.39
2018-02-18T02:37:46.521Z,102207.51
2018-02-18T02:42:40.801Z,102206.16
2018-02-18T02:47:35.091Z,102209.13
2018-02-18T02:52:30.146Z,102218.66
2018-02-18T02:57:24.436Z,102219.05
2018-02-18T03:02:18.740Z,102217.80
2018-02-18T03:07:13.039Z,102212.69
2018-02-18T03:12:07.323Z,102210.96
2018-02-18T03:17:01.605Z,102210.55
2018-02-18T03:21:56.662Z,102194.50
2018-02-18T03:26:50.940Z,102191.44
2018-02-18T03:31:45.220Z,102192.70
2018-02-18T03:36:41.103Z,102188.32
2018-02-18T03:41:35.402Z,102194.38
2018-02-18T03:46:29.883Z,102195.67
2018-02-18T03:51:24.156Z,102189.08
2018-02-18T03:56:19.205Z,102195.52
2018-02-18T04:01:13.626Z,102187.23
2018-02-18T04:06:07.985Z,102191.08
2018-02-18T04:11:03.154Z,102186.70
2018-02-18T04:15:57.428Z,102191.00
2018-02-18T04:20:52.037Z,102199.16
2018-02-18T04:25:46.299Z,102204.68
2018-02-18T04:30:40.795Z,102207.62
2018-02-18T04:35:35.064Z,102204.50
2018-02-18T04:40:29.345Z,102209.61
2018-02-18T04:45:23.667Z,102210.43
2018-02-18T04:50:17.979Z,102207.78
2018-02-18T04:55:12.285Z,102212.95
2018-02-18T05:00:06.593Z,102216.87
2018-02-18T05:05:00.883Z,102215.66
2018-02-18T05:09:55.173Z,102213.97
2018-02-18T05:14:49.457Z,102217.02
2018-02-18T05:19:43.973Z,102223.09
2018-02-18T05:24:38.306Z,102222.69
2018-02-18T05:29:32.584Z,102220.59
2018-02-18T05:34:26.636Z,102218.41
2018-02-18T05:39:21.695Z,102211.48
2018-02-18T05:44:18.444Z,102216.25
2018-02-18T05:49:12.740Z,102231.86
2018-02-18T05:54:07.052Z,102238.72
2018-02-18T05:59:01.615Z,102230.91
2018-02-18T06:03:56.778Z,102226.61
2018-02-18T06:08:51.277Z,102221.89
2018-02-18T06:13:45.693Z,102223.23
2018-02-18T06:18:39.981Z,102224.99
2018-02-18T06:23:34.384Z,102226.23
2018-02-18T06:28:28.811Z,102225.38
2018-02-18T06:33:23.247Z,102225.02
2018-02-18T06:38:18.295Z,102238.84
2018-02-18T06:43:12.581Z,102243.23
2018-02-18T06:48:07.651Z,102224.23
2018-02-18T06:53:01.937Z,102228.17
2018-02-18T06:57:56.223Z,102232.58
2018-02-18T07:02:50.524Z,102241.30
2018-02-18T07:07:45.057Z,102256.17
2018-02-18T07:12:39.510Z,102252.38
2018-02-18T07:17:34.582Z,102250.74
2018-02-18T07:22:28.874Z,102246.11
2018-02-18T07:27:23.310Z,102241.49
2018-02-18T07:32:17.603Z,102251.59
2018-02-18T07:37:11.885Z,102257.41
2018-02-18T07:42:07.912Z,102245.91
2018-02-18T07:47:02.210Z,102234.13
2018-02-18T07:51:56.511Z,102225.78
2018-02-18T07:56:50.802Z,102219.56
2018-02-18T08:01:45.243Z,102224.73
2018-02-18T08:06:39.540Z,102225.46
2018-02-18T08:11:34.023Z,102213.09
2018-02-18T08:16:28.311Z,102203.77
2018-02-18T08:21:22.594Z,102215.56
2018-02-18T08:26:16.899Z,102215.59
2018-02-18T08:31:11.185Z,102200.27
2018-02-18T08:36:06.512Z,102206.44
2018-02-18T08:41:00.863Z,102202.58
2018-02-18T08:45:55.163Z,102208.08
2018-02-18T08:50:49.492Z,102206.88
2018-02-18T08:55:43.997Z,102203.55
2018-02-18T09:00:39.271Z,102196.80
2018-02-18T09:05:33.667Z,102210.47
2018-02-18T09:10:28.855Z,102213.16
2018-02-18T09:15:23.969Z,102223.56
2018-02-18T09:20:19.137Z,102226.36
2018-02-18T09:25:13.427Z,102219.09
2018-02-18T09:30:08.429Z,102221.85
2018-02-18T09:35:03.136Z,102211.60
2018-02-18T09:39:58.213Z,102209.80
2018-02-18T09:44:52.891Z,102221.41
2018-02-18T09:49:47.751Z,102214.55
2018-02-18T09:54:42.612Z,102216.59
2018-02-18T09:59:36.967Z,102216.84
2018-02-18T10:04:31.485Z,102213.33
2018-02-18T10:09:26.324Z,102217.91
2018-02-18T10:14:20.674Z,102225.09
2018-02-18T10:19:15.916Z,102226.63
2018-02-18T10:24:10.177Z,102231.03
2018-02-18T10:29:04.481Z,102241.67
2018-02-18T10:33:58.877Z,102237.31
2018-02-18T10:38:53.224Z,102242.67
2018-02-18T10:43:47.699Z,102241.20
2018-02-18T10:48:42.042Z,102231.31
2018-02-18T10:53:37.230Z,102242.31
2018-02-18T10:58:31.745Z,102234.11
2018-02-18T11:03:26.681Z,102233.27
2018-02-18T11:08:21.739Z,102228.62
2018-02-18T11:13:16.215Z,102226.83
2018-02-18T11:18:10.658Z,102221.08
2018-02-18T11:23:05.034Z,102221.41
2018-02-18T11:27:59.848Z,102218.33
2018-02-18T11:32:54.165Z,102219.30
2018-02-18T11:37:48.786Z,102207.62
2018-02-18T11:42:43.223Z,102209.65
2018-02-18T11:47:37.702Z,102200.71
2018-02-18T11:52:32.837Z,102194.39
2018-02-18T11:57:27.476Z,102194.66
2018-02-18T12:02:21.873Z,102194.03
2018-02-18T12:07:17.110Z,102186.46
2018-02-18T12:12:11.497Z,102174.88
2018-02-18T12:17:05.834Z,102175.64
2018-02-18T12:22:00.378Z,102171.86
2018-02-18T12:26:54.694Z,102156.69
2018-02-18T12:31:49.576Z,102154.12
2018-02-18T12:36:43.880Z,102156.97
2018-02-18T12:41:38.228Z,102155.48
2018-02-18T12:46:32.557Z,102155.72
2018-02-18T12:51:27.286Z,102139.34
2018-02-18T12:56:21.577Z,102135.97
2018-02-18T13:01:15.900Z,102119.59
2018-02-18T13:06:10.330Z,102121.75
2018-02-18T13:11:04.949Z,102108.83
2018-02-18T13:15:59.551Z,102105.62
2018-02-18T13:20:54.830Z,102105.28
2018-02-18T13:25:49.361Z,102094.38
2018-02-18T13:30:43.621Z,102092.91
2018-02-18T13:35:37.763Z,102095.04
2018-02-18T13:40:32.070Z,102100.09
2018-02-18T13:45:26.561Z,102082.59
2018-02-18T13:50:20.865Z,102081.45
2018-02-18T13:55:15.147Z,102073.27
2018-02-18T14:00:09.425Z,102083.14
2018-02-18T14:05:03.712Z,102079.82
2018-02-18T14:09:58.880Z,102070.78
2018-02-18T14:14:53.261Z,102062.34
2018-02-18T14:19:47.755Z,102066.28
2018-02-18T14:24:41.904Z,102068.44
2018-02-18T14:29:36.268Z,102071.63
2018-02-18T14:34:31.630Z,102076.12
2018-02-18T14:39:26.023Z,102070.34
2018-02-18T14:44:37.329Z,102068.58
2018-02-18T14:49:48.776Z,102060.64
2018-02-18T15:10:43.439Z,102042.71
2018-02-18T15:15:37.828Z,102039.83
2018-02-18T15:20:32.235Z,102039.09
2018-02-18T15:25:26.535Z,102038.45
2018-02-18T15:30:20.804Z,102027.98
2018-02-18T15:35:15.110Z,102027.95
2018-02-18T15:40:09.409Z,102028.98
2018-02-18T15:45:03.855Z,102035.70
2018-02-18T15:49:58.154Z,102031.42
2018-02-18T15:54:52.743Z,102034.23
2018-02-18T15:59:47.115Z,102026.52
2018-02-18T16:04:42.165Z,102027.70
2018-02-18T16:09:36.581Z,102017.31
2018-02-18T16:14:31.896Z,102014.48
2018-02-18T16:19:26.154Z,102017.28
2018-02-18T16:24:21.418Z,102009.59
2018-02-18T16:29:15.828Z,102014.63
2018-02-18T16:34:10.131Z,102013.50
2018-02-18T16:39:04.187Z,102017.55
2018-02-18T16:43:58.482Z,102020.73
2018-02-18T16:48:53.560Z,102017.38
2018-02-18T16:53:47.989Z,102028.50
2018-02-18T16:58:43.561Z,102029.16
2018-02-18T17:03:37.866Z,102028.48
2018-02-18T17:08:32.173Z,102024.79
2018-02-18T17:13:26.473Z,102021.58
2018-02-18T17:18:21.272Z,102017.86
2018-02-18T17:23:17.786Z,102017.64
2018-02-18T17:28:12.086Z,102017.36
2018-02-18T17:33:06.362Z,102012.74
2018-02-18T17:38:00.653Z,102014.55
2018-02-18T17:42:54.955Z,102008.56
2018-02-18T17:47:49.264Z,102006.05
2018-02-18T17:52:43.689Z,102007.03
2018-02-18T17:57:38.054Z,102008.86
2018-02-18T18:02:32.389Z,102008.92
2018-02-18T18:07:26.698Z,102008.11
2018-02-18T18:12:21.404Z,102010.38
2018-02-18T18:17:15.715Z,102011.34
2018-02-18T18:22:10.765Z,102002.27
2018-02-18T18:27:04.843Z,102008.48
2018-02-18T18:31:59.717Z,102011.19
2018-02-18T18:36:53.983Z,102006.05
2018-02-18T18:41:48.285Z,102008.31
2018-02-18T18:46:42.929Z,102010.16
2018-02-18T18:51:37.243Z,102002.36
2018-02-18T18:56:32.325Z,102002.44
2018-02-18T19:01:26.866Z,102016.03
2018-02-18T19:06:21.205Z,102016.09
2018-02-18T19:11:15.482Z,102015.25
2018-02-18T19:16:10.580Z,102012.23
2018-02-18T19:21:05.116Z,102013.55
2018-02-18T19:26:00.179Z,102007.88
2018-02-18T19:30:54.501Z,102011.38
2018-02-18T19:35:48.799Z,102006.63
2018-02-18T19:40:43.230Z,101999.67
2018-02-18T19:45:37.515Z,101999.25
2018-02-18T19:50:31.822Z,102002.70
2018-02-18T19:55:26.901Z,102001.86
2018-02-18T20:00:21.201Z,102000.12
2018-02-18T20:05:16.547Z,101995.81
2018-02-18T20:10:10.869Z,102001.52
2018-02-18T20:15:05.327Z,102008.53
2018-02-18T20:19:59.711Z,102013.37
2018-02-18T20:24:54.026Z,102012.98
2018-02-18T20:29:48.325Z,102003.44
2018-02-18T20:34:42.850Z,102000.02
2018-02-18T20:39:37.165Z,102001.34
2018-02-18T20:44:31.648Z,101992.64
2018-02-18T20:49:25.967Z,101984.83
2018-02-18T20:54:20.272Z,101980.09
2018-02-18T20:59:14.574Z,101974.03
2018-02-18T21:04:09.059Z,101965.78
2018-02-18T21:09:03.972Z,101968.86
2018-02-18T21:13:58.281Z,101975.87
2018-02-18T21:18:52.573Z,101981.14
2018-02-18T21:23:46.873Z,101980.70
2018-02-18T21:28:41.183Z,101967.69
2018-02-18T21:33:35.582Z,101966.80
2018-02-18T21:38:30.181Z,101970.73
2018-02-18T21:43:24.633Z,101964.21
2018-02-18T21:48:19.686Z,101964.23
2018-02-18T21:53:13.964Z,101953.78
2018-02-18T21:58:10.226Z,101942.50
2018-02-18T22:03:07.014Z,101942.05
2018-02-18T22:08:01.291Z,101935.53
2018-02-18T22:12:55.710Z,101931.63
2018-02-18T22:17:50.127Z,101927.31
2018-02-18T22:22:44.646Z,101926.89
2018-02-18T22:27:38.966Z,101922.12
2018-02-18T22:32:34.002Z,101932.55
2018-02-18T22:37:29.083Z,101932.59
2018-02-18T22:42:23.911Z,101934.34
2018-02-18T22:47:19.065Z,101935.66
2018-02-18T22:52:14.127Z,101941.75
2018-02-18T22:57:08.726Z,101945.67
2018-02-18T23:02:03.018Z,101945.65
2018-02-18T23:07:03.162Z,101945.67
2018-02-18T23:11:57.494Z,101945.23
2018-02-18T23:16:51.770Z,101940.00
2018-02-18T23:21:46.213Z,101943.06
2018-02-18T23:26:40.508Z,101944.36
2018-02-18T23:31:34.957Z,101933.48
2018-02-18T23:36:29.297Z,101943.91
2018-02-18T23:41:24.008Z,101936.09
2018-02-18T23:46:18.301Z,101936.95
2018-02-18T23:51:13.512Z,101933.05
2018-02-18T23:56:07.929Z,101933.48
